createdAt,value
2019-05-02T00:00:26.613Z,9.53
2019-05-02T00:03:29.372Z,7.73
2019-05-02T00:06:31.644Z,9.17
2019-05-02T00:09:34.142Z,7.80
2019-05-02T00:12:36.426Z,7.43
2019-05-02T00:15:39.200Z,7.23
2019-05-02T00:18:40.892Z,6.70
2019-05-02T00:21:43.236Z,6.03
2019-05-02T00:24:45.783Z,6.70
2019-05-02T00:27:48.004Z,8.27
2019-05-02T00:30:50.263Z,8.70
2019-05-02T00:33:52.479Z,5.63
2019-05-02T00:36:54.691Z,6.90
2019-05-02T00:39:56.915Z,6.47
2019-05-02T00:42:59.639Z,7.20
2019-05-02T00:46:01.406Z,7.20
2019-05-02T00:49:03.647Z,7.03
2019-05-02T00:52:05.913Z,9.60
2019-05-02T00:55:08.180Z,7.67
2019-05-02T00:58:10.394Z,6.37
2019-05-02T01:01:24.302Z,8.97
2019-05-02T01:04:29.241Z,6.83
2019-05-02T01:07:31.449Z,6.90
2019-05-02T01:10:33.683Z,6.50
2019-05-02T01:13:35.911Z,6.80
2019-05-02T01:16:38.131Z,6.87
2019-05-02T01:19:40.399Z,8.13
2019-05-02T01:22:42.615Z,6.87
2019-05-02T01:25:47.417Z,6.83
2019-05-02T01:28:54.381Z,7.37
2019-05-02T01:32:00.589Z,7.00
2019-05-02T01:35:07.463Z,7.70
2019-05-02T01:38:15.314Z,6.70
2019-05-02T01:41:17.555Z,7.50
2019-05-02T01:44:19.776Z,6.83
2019-05-02T01:47:22.010Z,7.87
2019-05-02T01:50:24.238Z,7.03
2019-05-02T01:53:29.423Z,6.87
2019-05-02T01:56:32.922Z,13.43
2019-05-02T01:59:33.862Z,8.80
2019-05-02T02:02:34.108Z,5.93
2019-05-02T02:05:35.811Z,8.03
2019-05-02T02:08:38.098Z,5.07
2019-05-02T02:11:40.365Z,5.73
2019-05-02T02:14:42.647Z,7.77
2019-05-02T02:17:46.873Z,5.97
2019-05-02T02:21:25.680Z,6.33
2019-05-02T02:24:32.077Z,7.30
2019-05-02T02:27:34.271Z,8.27
2019-05-02T02:30:36.465Z,6.80
2019-05-02T02:33:41.039Z,7.63
2019-05-02T02:36:40.897Z,6.60
2019-05-02T02:39:48.664Z,5.53
2019-05-02T02:42:45.340Z,5.40
2019-05-02T02:45:58.128Z,7.23
2019-05-02T02:48:55.309Z,5.93
2019-05-02T02:52:04.972Z,5.87
2019-05-02T02:54:59.745Z,6.90
2019-05-02T02:58:04.662Z,7.37
2019-05-02T03:01:04.261Z,9.00
2019-05-02T03:04:09.284Z,6.70
2019-05-02T03:07:08.723Z,7.27
2019-05-02T03:10:10.999Z,6.27
2019-05-02T03:14:20.272Z,5.30
2019-05-02T03:17:26.095Z,6.17
2019-05-02T03:20:24.751Z,8.37
2019-05-02T03:23:26.986Z,5.63
2019-05-02T03:26:29.246Z,7.03
2019-05-02T03:29:41.353Z,6.93
2019-05-02T03:32:35.994Z,6.70
2019-05-02T03:35:44.648Z,7.00
2019-05-02T03:38:38.285Z,7.93
2019-05-02T03:41:40.524Z,6.63
2019-05-02T03:44:42.732Z,7.33
2019-05-02T03:47:46.551Z,7.47
2019-05-02T03:50:47.295Z,7.40
2019-05-02T03:53:49.557Z,4.63
2019-05-02T03:56:53.435Z,5.20
2019-05-02T03:59:54.095Z,6.30
2019-05-02T04:03:00.858Z,7.37
2019-05-02T04:05:58.588Z,6.20
2019-05-02T04:09:02.071Z,6.77
2019-05-02T04:12:03.127Z,8.20
2019-05-02T04:15:09.379Z,6.40
2019-05-02T04:18:08.446Z,7.50
2019-05-02T04:21:10.052Z,8.60
2019-05-02T04:24:15.573Z,9.10
2019-05-02T04:27:14.573Z,7.07
2019-05-02T04:30:16.869Z,7.77
2019-05-02T04:33:19.080Z,9.07
2019-05-02T04:36:21.300Z,7.00
2019-05-02T04:39:23.501Z,9.00
2019-05-02T04:42:25.736Z,7.80
2019-05-02T04:45:38.434Z,7.63
2019-05-02T04:48:34.859Z,8.30
2019-05-02T04:51:32.501Z,7.93
2019-05-02T04:54:34.728Z,7.73
2019-05-02T04:57:46.284Z,6.73
2019-05-02T05:00:44.786Z,8.40
2019-05-02T05:03:41.462Z,6.90
2019-05-02T05:06:52.855Z,7.27
2019-05-02T05:09:47.875Z,6.07
2019-05-02T05:12:48.199Z,11.27
2019-05-02T05:15:51.914Z,8.70
2019-05-02T05:18:53.282Z,8.83
2019-05-02T05:21:58.754Z,7.27
2019-05-02T05:25:01.575Z,6.07
2019-05-02T05:28:06.033Z,7.30
2019-05-02T05:31:07.683Z,10.70
2019-05-02T05:34:09.861Z,7.93
2019-05-02T05:37:13.409Z,8.77
2019-05-02T05:40:12.933Z,8.20
2019-05-02T05:43:17.932Z,7.63
2019-05-02T05:46:17.835Z,7.40
2019-05-02T05:49:21.760Z,9.63
2019-05-02T05:52:21.911Z,6.70
2019-05-02T05:55:24.578Z,5.40
2019-05-02T05:58:28.257Z,8.47
2019-05-02T06:01:33.768Z,5.90
2019-05-02T06:04:33.264Z,8.40
2019-05-02T06:07:41.203Z,7.70
2019-05-02T06:10:39.084Z,6.70
2019-05-02T06:13:38.189Z,6.60
2019-05-02T06:16:39.996Z,5.60
2019-05-02T06:19:42.199Z,7.10
2019-05-02T06:22:44.435Z,6.97
2019-05-02T06:25:46.647Z,7.90
2019-05-02T06:28:48.896Z,8.73
2019-05-02T06:31:51.082Z,9.90
2019-05-02T06:34:53.312Z,6.20
2019-05-02T06:37:55.651Z,7.83
2019-05-02T06:40:57.909Z,8.30
2019-05-02T06:44:00.108Z,7.70
2019-05-02T06:47:04.252Z,7.00
2019-05-02T06:50:04.743Z,7.93
2019-05-02T06:53:09.604Z,8.37
2019-05-02T06:56:12.625Z,7.13
2019-05-02T06:59:13.114Z,6.73
2019-05-02T07:02:13.950Z,6.77
2019-05-02T07:05:16.242Z,6.37
2019-05-02T07:08:18.555Z,8.57
2019-05-02T07:11:20.817Z,5.90
2019-05-02T07:14:24.076Z,8.50
2019-05-02T07:17:38.278Z,7.87
2019-05-02T07:20:40.497Z,12.53
2019-05-02T07:23:40.653Z,8.47
2019-05-02T07:26:42.923Z,10.73
2019-05-02T07:29:45.150Z,7.80
2019-05-02T07:32:47.400Z,8.87
2019-05-02T07:35:49.644Z,9.37
2019-05-02T07:38:51.913Z,8.00
2019-05-02T07:41:54.130Z,9.50
2019-05-02T07:44:56.339Z,10.00
2019-05-02T07:48:01.317Z,9.17
2019-05-02T07:51:00.790Z,9.63
2019-05-02T07:54:03.019Z,12.17
2019-05-02T07:57:05.249Z,8.70
2019-05-02T08:00:08.163Z,10.73
2019-05-02T08:03:10.376Z,13.80
2019-05-02T08:06:12.635Z,11.17
2019-05-02T08:09:14.855Z,9.20
2019-05-02T08:12:17.147Z,10.73
2019-05-02T08:15:19.432Z,9.20
2019-05-02T08:18:25.107Z,9.57
2019-05-02T08:21:27.258Z,11.10
2019-05-02T08:24:26.203Z,7.93
2019-05-02T08:27:34.736Z,10.87
2019-05-02T08:30:40.388Z,11.33
2019-05-02T08:33:41.188Z,10.53
2019-05-02T08:36:43.416Z,12.30
2019-05-02T08:39:45.638Z,9.83
2019-05-02T08:42:47.887Z,11.77
2019-05-02T08:45:50.121Z,12.30
2019-05-02T08:48:52.323Z,10.03
2019-05-02T08:51:54.547Z,10.10
2019-05-02T08:54:56.785Z,10.90
2019-05-02T08:57:59.032Z,11.23
2019-05-02T09:01:01.259Z,10.17
2019-05-02T09:04:03.551Z,11.17
2019-05-02T09:07:05.955Z,8.77
2019-05-02T09:10:08.252Z,9.43
2019-05-02T09:13:10.475Z,9.83
2019-05-02T09:16:12.791Z,11.77
2019-05-02T09:19:21.225Z,9.23
2019-05-02T09:22:17.293Z,11.20
2019-05-02T09:25:19.547Z,9.23
2019-05-02T09:28:25.324Z,10.83
2019-05-02T09:31:24.612Z,11.13
2019-05-02T09:34:26.901Z,12.17
2019-05-02T09:37:29.115Z,8.80
2019-05-02T09:40:31.885Z,9.43
2019-05-02T09:43:37.936Z,9.13
2019-05-02T09:46:35.875Z,10.03
2019-05-02T09:49:43.571Z,10.90
2019-05-02T09:52:43.646Z,10.97
2019-05-02T09:55:49.726Z,7.37
2019-05-02T09:58:45.264Z,14.27
2019-05-02T10:01:47.553Z,8.47
2019-05-02T10:04:49.828Z,10.53
2019-05-02T10:07:52.639Z,9.77
2019-05-02T10:10:54.423Z,10.10
2019-05-02T10:13:56.670Z,10.60
2019-05-02T10:17:05.097Z,8.27
2019-05-02T10:20:02.037Z,12.20
2019-05-02T10:23:03.494Z,13.67
2019-05-02T10:26:05.719Z,9.50
2019-05-02T10:29:07.995Z,10.30
2019-05-02T10:32:13.010Z,7.10
2019-05-02T10:35:13.159Z,7.50
2019-05-02T10:38:19.351Z,8.73
2019-05-02T10:41:17.740Z,9.93
2019-05-02T10:44:22.393Z,10.00
2019-05-02T10:47:22.275Z,9.13
2019-05-02T10:50:27.234Z,9.47
2019-05-02T10:53:29.441Z,11.80
2019-05-02T10:56:32.448Z,9.23
2019-05-02T10:59:33.931Z,7.03
2019-05-02T11:02:44.691Z,9.40
2019-05-02T11:05:48.960Z,9.70
2019-05-02T11:08:52.494Z,7.47
2019-05-02T11:11:53.515Z,7.70
2019-05-02T11:15:02.163Z,9.07
2019-05-02T11:18:02.736Z,9.03
2019-05-02T11:21:08.253Z,9.00
2019-05-02T11:24:07.247Z,10.97
2019-05-02T11:27:09.468Z,8.40
2019-05-02T11:30:12.198Z,8.53
2019-05-02T11:33:14.198Z,7.63
2019-05-02T11:36:16.474Z,8.90
2019-05-02T11:39:26.295Z,8.60
2019-05-02T11:42:23.253Z,8.67
2019-05-02T11:45:23.341Z,9.43
2019-05-02T11:48:25.568Z,9.17
2019-05-02T11:51:27.815Z,10.27
2019-05-02T11:54:31.854Z,12.73
2019-05-02T11:57:33.207Z,10.40
2019-05-02T12:00:34.631Z,7.03
2019-05-02T12:03:45.718Z,6.87
2019-05-02T12:06:49.952Z,9.97
2019-05-02T12:09:55.576Z,7.33
2019-05-02T12:12:52.729Z,6.43
2019-05-02T12:15:54.751Z,10.47
2019-05-02T12:19:08.474Z,8.23
2019-05-02T12:21:59.263Z,10.00
2019-05-02T12:25:02.998Z,6.47
2019-05-02T12:28:03.840Z,9.23
2019-05-02T12:31:07.952Z,6.83
2019-05-02T12:34:08.573Z,12.73
2019-05-02T12:37:12.496Z,9.43
2019-05-02T12:40:13.104Z,6.93
2019-05-02T12:43:15.348Z,6.33
2019-05-02T12:46:17.609Z,5.50
2019-05-02T12:49:25.378Z,7.40
2019-05-02T12:52:22.543Z,7.20
2019-05-02T12:55:24.357Z,7.27
2019-05-02T12:58:26.580Z,9.93
2019-05-02T13:01:28.855Z,6.73
2019-05-02T13:04:32.289Z,8.23
2019-05-02T13:07:33.283Z,8.37
2019-05-02T13:10:41.831Z,10.27
2019-05-02T13:13:42.463Z,8.27
2019-05-02T13:16:44.680Z,6.90
2019-05-02T13:19:55.512Z,5.23
2019-05-02T13:23:01.018Z,7.63
2019-05-02T13:26:02.497Z,7.20
2019-05-02T13:29:03.323Z,6.83
2019-05-02T13:32:42.826Z,7.97
2019-05-02T13:35:48.301Z,6.03
2019-05-02T13:38:51.927Z,7.40
2019-05-02T13:41:52.876Z,4.63
2019-05-02T13:44:58.985Z,5.13
2019-05-02T13:48:02.786Z,4.77
2019-05-02T13:51:04.075Z,10.20
2019-05-02T13:54:05.867Z,5.23
2019-05-02T13:57:08.167Z,6.83
2019-05-02T14:00:10.480Z,6.43
2019-05-02T14:03:12.839Z,4.47
2019-05-02T14:06:15.220Z,5.73
2019-05-02T14:09:26.446Z,6.17
2019-05-02T14:12:48.170Z,11.87
2019-05-02T14:15:50.458Z,4.90
2019-05-02T14:18:53.078Z,5.37
2019-05-02T14:21:54.939Z,4.70
2019-05-02T14:24:57.215Z,5.50
2019-05-02T14:27:59.428Z,4.60
2019-05-02T14:31:02.208Z,4.33
2019-05-02T14:34:09.479Z,4.13
2019-05-02T14:37:11.938Z,4.40
2019-05-02T14:40:22.246Z,4.20
2019-05-02T14:43:28.634Z,5.73
2019-05-02T14:46:35.576Z,5.60
2019-05-02T14:49:33.015Z,8.40
2019-05-02T14:52:37.105Z,7.30
2019-05-02T14:55:38.160Z,4.73
2019-05-02T14:58:40.364Z,5.50
2019-05-02T15:01:46.736Z,5.43
2019-05-02T15:04:48.936Z,4.17
2019-05-02T15:07:48.520Z,5.60
2019-05-02T15:10:56.091Z,5.30
2019-05-02T15:13:53.022Z,5.03
2019-05-02T15:16:58.370Z,6.83
2019-05-02T15:19:57.535Z,5.00
2019-05-02T15:22:59.752Z,6.60
2019-05-02T15:26:02.622Z,6.97
2019-05-02T15:29:06.492Z,5.53
2019-05-02T15:32:16.115Z,5.87
2019-05-02T15:35:26.708Z,5.90
2019-05-02T15:38:28.024Z,5.93
2019-05-02T15:41:27.620Z,5.27
2019-05-02T15:44:31.695Z,7.40
2019-05-02T15:47:32.175Z,10.17
2019-05-02T15:50:34.413Z,6.80
2019-05-02T15:57:18.919Z,8.43
2019-05-02T16:00:23.174Z,6.07
2019-05-02T16:03:22.615Z,6.27
2019-05-02T16:06:30.794Z,5.10
2019-05-02T16:09:27.117Z,8.30
2019-05-02T16:12:32.140Z,6.00
2019-05-02T16:15:32.604Z,6.77
2019-05-02T16:18:36.114Z,5.93
2019-05-02T16:21:42.498Z,6.40
2019-05-02T16:24:43.840Z,5.60
2019-05-02T16:27:46.096Z,8.90
2019-05-02T16:30:48.374Z,8.27
2019-05-02T16:33:54.758Z,6.97
2019-05-02T16:36:57.480Z,5.50
2019-05-02T16:39:59.801Z,5.97
2019-05-02T16:43:02.867Z,5.67
2019-05-02T16:46:06.614Z,6.20
2019-05-02T16:49:08.822Z,7.97
2019-05-02T16:52:08.849Z,9.00
2019-05-02T16:55:13.633Z,6.23
2019-05-02T16:58:13.420Z,7.30
2019-05-02T17:01:26.562Z,6.67
2019-05-02T17:04:17.927Z,7.80
2019-05-02T17:07:24.744Z,7.23
2019-05-02T17:10:32.189Z,10.53
2019-05-02T17:13:35.751Z,5.30
2019-05-02T17:16:35.174Z,8.63
2019-05-02T17:19:37.427Z,6.23
2019-05-02T17:22:41.439Z,7.83
2019-05-02T17:25:41.936Z,8.70
2019-05-02T17:28:47.137Z,10.07
2019-05-02T17:31:50.070Z,9.97
2019-05-02T17:34:48.779Z,8.23
2019-05-02T17:37:52.392Z,8.50
2019-05-02T17:40:54.513Z,7.57
2019-05-02T17:43:59.416Z,5.97
2019-05-02T17:47:03.815Z,8.60
2019-05-02T17:50:17.794Z,7.03
2019-05-02T17:53:15.566Z,6.70
2019-05-02T17:56:22.520Z,8.37
2019-05-02T17:59:28.357Z,8.57
2019-05-02T18:02:26.087Z,9.27
2019-05-02T18:05:34.056Z,8.60
2019-05-02T18:08:32.403Z,8.27
2019-05-02T18:11:37.713Z,9.43
2019-05-02T18:14:36.876Z,9.40
2019-05-02T18:17:39.101Z,8.03
2019-05-02T18:20:42.888Z,9.80
2019-05-02T18:23:43.615Z,12.20
2019-05-02T18:26:45.869Z,9.10
2019-05-02T18:29:48.145Z,8.00
2019-05-02T18:32:50.400Z,5.73
2019-05-02T18:35:52.728Z,9.10
2019-05-02T18:39:00.440Z,6.93
2019-05-02T18:41:57.173Z,8.03
2019-05-02T18:44:59.419Z,6.93
2019-05-02T18:48:06.473Z,7.83
2019-05-02T18:51:03.912Z,8.53
2019-05-02T18:54:07.684Z,9.70
2019-05-02T18:57:08.421Z,8.27
2019-05-02T19:00:12.208Z,8.07
2019-05-02T19:03:16.957Z,11.47
2019-05-02T19:06:15.235Z,6.93
2019-05-02T19:09:21.866Z,9.33
2019-05-02T19:12:24.044Z,6.97
2019-05-02T19:15:22.075Z,8.13
2019-05-02T19:18:24.350Z,6.47
2019-05-02T19:21:41.423Z,7.17
2019-05-02T19:24:43.695Z,9.10
2019-05-02T19:27:52.144Z,10.40
2019-05-02T19:30:57.241Z,6.77
2019-05-02T19:33:56.629Z,8.20
2019-05-02T19:37:02.842Z,8.83
2019-05-02T19:40:02.136Z,9.13
2019-05-02T19:43:07.699Z,10.00
2019-05-02T19:46:06.656Z,7.23
2019-05-02T19:49:12.370Z,9.83
2019-05-02T19:52:12.822Z,7.87
2019-05-02T19:55:19.816Z,8.67
2019-05-02T19:58:15.761Z,10.70
2019-05-02T20:01:23.046Z,10.73
2019-05-02T20:04:22.273Z,10.87
2019-05-02T20:07:24.455Z,8.80
2019-05-02T20:10:26.756Z,9.33
2019-05-02T20:13:30.550Z,8.77
2019-05-02T20:16:36.691Z,8.63
2019-05-02T20:19:37.752Z,17.83
2019-05-02T20:22:40.982Z,11.90
2019-05-02T20:25:42.677Z,9.27
2019-05-02T20:28:44.617Z,8.00
2019-05-02T20:31:46.863Z,10.17
2019-05-02T20:34:49.107Z,9.17
2019-05-02T20:37:52.597Z,10.00
2019-05-02T20:40:53.588Z,11.70
2019-05-02T20:43:55.858Z,11.00
2019-05-02T20:46:58.044Z,10.43
2019-05-02T20:50:02.524Z,12.23
2019-05-02T20:53:02.823Z,12.00
2019-05-02T20:56:05.055Z,12.07
2019-05-02T20:59:07.280Z,12.10
2019-05-02T21:02:09.527Z,11.53
2019-05-02T21:05:15.207Z,14.87
2019-05-02T21:08:23.836Z,13.60
2019-05-02T21:11:26.835Z,17.17
2019-05-02T21:14:29.143Z,17.80
2019-05-02T21:17:32.755Z,17.57
2019-05-02T21:20:33.870Z,12.57
2019-05-02T21:23:44.815Z,14.73
2019-05-02T21:26:38.347Z,16.33
2019-05-02T21:29:42.501Z,14.80
2019-05-02T21:32:42.959Z,12.67
2019-05-02T21:35:45.152Z,12.70
2019-05-02T21:38:47.415Z,10.27
2019-05-02T21:41:51.564Z,11.07
2019-05-02T21:44:52.032Z,10.27
2019-05-02T21:47:54.175Z,8.60
2019-05-02T21:51:02.497Z,9.07
2019-05-02T21:54:15.706Z,8.60
2019-05-02T21:57:18.502Z,8.57
2019-05-02T22:01:25.597Z,9.60
2019-05-02T22:04:27.841Z,7.70
2019-05-02T22:10:24.483Z,9.20
2019-05-02T22:13:26.682Z,7.10
2019-05-02T22:16:29.406Z,9.17
2019-05-02T22:19:32.439Z,5.50
2019-05-02T22:22:34.627Z,7.73
2019-05-02T22:25:36.827Z,6.67
2019-05-02T22:28:39.111Z,6.73
2019-05-02T22:31:43.067Z,5.87
2019-05-02T22:34:45.320Z,9.00
2019-05-02T22:37:45.835Z,6.90
2019-05-02T22:40:48.463Z,6.23
2019-05-02T22:43:50.726Z,9.10
2019-05-02T22:46:52.972Z,9.97
2019-05-02T22:49:55.199Z,9.23
2019-05-02T22:52:57.410Z,7.57
2019-05-02T22:55:59.672Z,7.20
2019-05-02T22:59:02.241Z,8.20
2019-05-02T23:02:04.238Z,7.10
2019-05-02T23:05:06.511Z,7.27
2019-05-02T23:08:08.748Z,9.27
2019-05-02T23:11:12.853Z,6.00
2019-05-02T23:14:13.227Z,4.53
2019-05-02T23:17:15.451Z,4.13
2019-05-02T23:20:17.687Z,5.17
2019-05-02T23:23:21.558Z,4.03
2019-05-02T23:26:26.752Z,3.87
2019-05-02T23:29:29.008Z,3.60
2019-05-02T23:32:31.673Z,3.43
2019-05-02T23:35:34.271Z,3.83
2019-05-02T23:38:35.760Z,4.57
2019-05-02T23:41:38.447Z,6.30
2019-05-02T23:44:42.469Z,3.43
2019-05-02T23:47:42.859Z,3.23
2019-05-02T23:50:45.080Z,3.73
2019-05-02T23:53:47.283Z,3.50
2019-05-02T23:56:49.507Z,3.23
2019-05-02T23:59:51.841Z,3.57
